Time;durP1;ratioP1;P1;durP2;ratioP2;P2;SDS_P1;SDS_P2;PMS_P1;PMS_P2;Temp;Humidity;BMP_temperature;BMP_pressure;BME280_temperature;BME280_humidity;BME280_pressure;Samples;Min_cycle;Max_cycle;Signal;HPM_P1;HPM_P2
2021/08/04 00:01:02;;;;;;;3.00;2.10;;;;;;;17.52;67.09;96480.88;5072660;28;20182;-67
2021/08/04 00:03:28;;;;;;;2.73;2.23;;;;;;;17.79;66.19;96492.13;5071413;28;20209;-68
2021/08/04 00:05:53;;;;;;;5.10;2.30;;;;;;;17.68;66.13;96484.88;5072490;28;20217;-67
2021/08/04 00:08:19;;;;;;;2.70;2.50;;;;;;;17.22;68.24;96483.31;5071261;28;20501;-69
2021/08/04 00:10:44;;;;;;;6.43;2.30;;;;;;;17.76;66.42;96494.41;5073811;28;20668;-67
2021/08/04 00:13:11;;;;;;;2.83;2.40;;;;;;;17.82;66.45;96496.16;5072856;28;20178;-68
2021/08/04 00:15:36;;;;;;;2.00;1.80;;;;;;;17.70;66.52;96482.00;5072606;28;20256;-67
2021/08/04 00:18:02;;;;;;;7.50;2.70;;;;;;;17.89;65.67;96489.00;5064372;28;20459;-67
2021/08/04 00:20:28;;;;;;;3.77;2.43;;;;;;;17.57;66.40;96482.91;5055177;28;20185;-69
2021/08/04 00:22:53;;;;;;;3.60;2.53;;;;;;;17.83;65.37;96479.25;5063045;28;20428;-68
2021/08/04 00:25:19;;;;;;;4.90;2.20;;;;;;;17.72;65.71;96485.25;5069375;28;20202;-67
2021/08/04 00:27:45;;;;;;;2.10;1.90;;;;;;;17.83;65.03;96487.19;5066604;28;20182;-68
2021/08/04 00:30:11;;;;;;;5.57;2.20;;;;;;;17.62;65.89;96483.91;5072092;28;20269;-68
2021/08/04 00:32:36;;;;;;;2.10;1.90;;;;;;;17.66;65.31;96478.97;5072232;28;20178;-68
2021/08/04 00:35:02;;;;;;;2.63;2.40;;;;;;;17.53;66.18;96485.16;5071531;28;20466;-67
2021/08/04 00:37:28;;;;;;;2.57;2.37;;;;;;;17.73;65.07;96481.56;5055476;28;20198;-68
2021/08/04 00:39:53;;;;;;;2.90;1.60;;;;;;;17.69;64.91;96483.84;5072019;28;20174;-68
2021/08/04 00:42:20;;;;;;;2.63;2.27;;;;;;;17.79;64.20;96486.81;5071904;28;20187;-68
2021/08/04 00:44:46;;;;;;;2.60;2.37;;;;;;;17.87;63.61;96480.44;5070097;28;20210;-68
2021/08/04 00:47:12;;;;;;;2.97;2.03;;;;;;;17.85;63.82;96482.50;5071450;28;20436;-69
2021/08/04 00:49:38;;;;;;;2.97;2.20;;;;;;;17.76;63.69;96483.78;5071665;28;20851;-68
2021/08/04 00:52:04;;;;;;;3.50;2.23;;;;;;;17.82;63.36;96480.28;5061731;28;20452;-67
2021/08/04 00:54:30;;;;;;;4.07;2.20;;;;;;;17.68;63.84;96481.41;5063580;28;20444;-68
2021/08/04 00:56:55;;;;;;;4.20;2.23;;;;;;;17.75;63.20;96479.53;5072107;28;20600;-69
2021/08/04 00:59:21;;;;;;;2.97;2.10;;;;;;;17.88;62.78;96476.78;5047314;28;20191;-68
2021/08/04 01:02:13;;;;;;;6.17;2.30;;;;;;;17.78;63.01;96482.53;5071786;28;20542;-68
2021/08/04 01:04:47;;;;;;;2.20;2.00;;;;;;;17.69;63.33;96473.25;5054835;28;20661;-68
2021/08/04 01:07:32;;;;;;;2.20;2.00;;;;;;;17.85;62.66;96469.25;5068826;28;20459;-68
2021/08/04 01:10:15;;;;;;;2.17;1.97;;;;;;;17.59;62.92;96467.59;5059653;28;20422;-68
2021/08/04 01:12:45;;;;;;;2.53;2.33;;;;;;;17.70;62.89;96466.09;5063278;28;20448;-68
2021/08/04 01:15:12;;;;;;;3.93;2.00;;;;;;;17.80;62.49;96456.66;5068236;28;20946;-68
2021/08/04 01:17:40;;;;;;;4.93;2.27;;;;;;;17.81;62.35;96457.44;5070532;28;20482;-68
2021/08/04 01:20:11;;;;;;;2.30;2.10;;;;;;;17.83;62.03;96449.28;5044532;28;20415;-67
2021/08/04 01:22:39;;;;;;;4.60;2.00;;;;;;;17.58;62.80;96444.81;5057191;28;20425;-69
2021/08/04 01:25:05;;;;;;;5.97;2.00;;;;;;;17.74;61.92;96446.91;5063710;28;20560;-68
2021/08/04 01:27:31;;;;;;;3.00;1.83;;;;;;;17.71;61.80;96452.63;5071570;28;20480;-68
2021/08/04 01:29:58;;;;;;;3.97;2.00;;;;;;;17.72;61.68;96456.91;5071595;28;20183;-68
2021/08/04 01:32:24;;;;;;;2.33;2.13;;;;;;;17.83;61.23;96463.34;5069899;28;20785;-69
2021/08/04 01:34:51;;;;;;;2.30;2.00;;;;;;;17.77;61.50;96470.31;5069950;28;20412;-68
2021/08/04 01:37:17;;;;;;;8.20;2.00;;;;;;;17.88;61.04;96468.81;5070314;28;20440;-68
2021/08/04 01:39:44;;;;;;;2.00;1.80;;;;;;;17.89;60.85;96464.31;5074960;28;20470;-68
2021/08/04 01:42:10;;;;;;;3.53;2.07;;;;;;;17.74;61.32;96456.69;5066847;28;20435;-70
2021/08/04 01:44:37;;;;;;;3.17;1.97;;;;;;;17.79;61.35;96464.78;5066927;28;20500;-68
2021/08/04 01:47:03;;;;;;;2.87;2.13;;;;;;;17.87;60.78;96461.91;5068312;28;20440;-68
2021/08/04 01:49:29;;;;;;;3.50;2.10;;;;;;;17.88;60.81;96458.22;5074021;28;20527;-68
2021/08/04 01:51:55;;;;;;;1.57;1.47;;;;;;;17.93;60.51;96455.72;5064398;28;20439;-67
2021/08/04 01:54:22;;;;;;;2.37;1.70;;;;;;;18.00;60.22;96455.69;5072238;28;20429;-68
2021/08/04 01:56:47;;;;;;;2.37;2.17;;;;;;;17.52;61.76;96454.41;5071405;28;20524;-68
2021/08/04 01:59:13;;;;;;;3.03;2.47;;;;;;;17.83;60.91;96446.66;5069569;28;20417;-68
2021/08/04 02:01:39;;;;;;;6.43;2.23;;;;;;;17.80;60.67;96451.34;5070831;28;20182;-68
2021/08/04 02:04:05;;;;;;;3.30;1.83;;;;;;;17.85;60.26;96453.34;5070298;28;20427;-68
2021/08/04 02:06:37;;;;;;;2.57;2.20;;;;;;;17.66;60.87;96458.56;5068838;28;20202;-68
2021/08/04 02:09:31;;;;;;;1.97;1.87;;;;;;;17.50;61.05;96457.28;5067430;28;20257;-69
2021/08/04 02:12:08;;;;;;;4.67;2.63;;;;;;;17.76;60.49;96454.66;5070619;28;20416;-67
2021/08/04 02:14:39;;;;;;;3.40;1.80;;;;;;;17.80;60.42;96458.47;5055755;28;20888;-70
2021/08/04 02:17:09;;;;;;;5.43;2.20;;;;;;;17.76;60.31;96458.09;5070360;28;20876;-69
2021/08/04 02:20:02;;;;;;;3.33;2.10;;;;;;;17.51;60.87;96460.75;5060949;28;20923;-68
2021/08/04 02:22:49;;;;;;;3.33;1.73;;;;;;;17.64;60.61;96457.97;5061257;28;20431;-67
2021/08/04 02:25:17;;;;;;;1.90;1.80;;;;;;;16.98;62.50;96454.75;5073237;28;20459;-68
2021/08/04 02:27:44;;;;;;;2.13;2.03;;;;;;;17.01;62.44;96456.94;5073064;28;20481;-68
2021/08/04 02:30:11;;;;;;;3.80;2.10;;;;;;;16.85;63.13;96449.47;5072854;28;20421;-68
2021/08/04 02:32:37;;;;;;;2.70;2.50;;;;;;;17.08;62.24;96453.47;5073197;28;20478;-67
2021/08/04 02:35:04;;;;;;;7.53;2.57;;;;;;;16.83;63.08;96441.72;5064162;28;20414;-67
2021/08/04 02:37:29;;;;;;;4.43;2.27;;;;;;;16.91;63.02;96443.31;5072738;28;20455;-68
2021/08/04 02:39:55;;;;;;;2.77;2.40;;;;;;;16.88;62.96;96444.56;5073953;28;20421;-69
2021/08/04 02:42:21;;;;;;;3.23;2.30;;;;;;;16.98;62.96;96445.97;5073847;28;20190;-68
2021/08/04 02:44:47;;;;;;;3.20;2.43;;;;;;;17.25;62.18;96440.53;5072617;28;20182;-67
2021/08/04 02:47:13;;;;;;;3.30;2.27;;;;;;;17.24;62.16;96441.56;5072595;28;20973;-68
2021/08/04 02:49:39;;;;;;;2.30;2.10;;;;;;;17.15;62.17;96435.69;5074024;28;20649;-68
2021/08/04 02:52:05;;;;;;;2.60;2.40;;;;;;;16.56;64.16;96441.03;5063527;28;20185;-67
2021/08/04 02:54:30;;;;;;;2.50;2.30;;;;;;;16.68;63.67;96433.28;5072256;28;20428;-68
2021/08/04 02:56:56;;;;;;;2.37;2.00;;;;;;;16.82;63.65;96439.31;5073564;28;21275;-68
2021/08/04 02:59:22;;;;;;;1.83;1.73;;;;;;;16.85;63.51;96433.59;5073718;28;20186;-68
2021/08/04 03:01:47;;;;;;;2.57;2.37;;;;;;;16.91;63.36;96438.03;5072758;28;20190;-67
2021/08/04 03:04:13;;;;;;;2.83;2.30;;;;;;;17.42;61.60;96438.16;5073137;28;20194;-68
2021/08/04 03:06:38;;;;;;;3.00;2.27;;;;;;;17.49;61.25;96434.44;5073653;28;20210;-69
2021/08/04 03:09:04;;;;;;;8.00;2.40;;;;;;;17.03;62.75;96441.66;5071827;28;20182;-68
2021/08/04 03:11:30;;;;;;;3.10;2.00;;;;;;;17.50;61.07;96430.78;5073447;28;20198;-68
2021/08/04 03:13:55;;;;;;;3.33;2.57;;;;;;;17.47;61.21;96430.41;5073588;28;20186;-68
2021/08/04 03:16:21;;;;;;;2.17;2.00;;;;;;;16.83;63.37;96427.72;5073329;28;20206;-67
2021/08/04 03:18:47;;;;;;;2.30;2.10;;;;;;;17.45;61.28;96437.75;5066162;28;20179;-68
2021/08/04 03:21:13;;;;;;;3.40;2.20;;;;;;;17.60;60.84;96430.31;5056909;28;20537;-68
2021/08/04 03:23:38;;;;;;;3.97;2.40;;;;;;;17.70;60.57;96429.00;5073500;28;20178;-68
2021/08/04 03:26:04;;;;;;;6.50;2.57;;;;;;;17.78;60.40;96429.53;5073169;28;21087;-69
2021/08/04 03:28:29;;;;;;;4.60;1.97;;;;;;;17.84;60.26;96438.47;5070206;28;20183;-68
2021/08/04 03:30:55;;;;;;;3.00;2.17;;;;;;;17.72;60.09;96434.91;5067170;28;20273;-69
2021/08/04 03:33:20;;;;;;;6.03;2.53;;;;;;;17.76;60.23;96436.91;5053546;28;20187;-69
2021/08/04 03:35:46;;;;;;;4.80;1.90;;;;;;;17.73;60.31;96441.81;5067824;28;20617;-68
2021/08/04 03:38:12;;;;;;;2.60;2.00;;;;;;;17.83;59.99;96434.19;5073031;28;20286;-68
2021/08/04 03:40:37;;;;;;;4.63;2.40;;;;;;;17.52;60.89;96433.19;5058298;28;20186;-68
2021/08/04 03:43:03;;;;;;;2.87;2.20;;;;;;;17.71;60.38;96435.94;5058111;28;20261;-67
2021/08/04 03:45:28;;;;;;;2.70;2.33;;;;;;;17.82;60.26;96437.88;5052474;28;20207;-68
2021/08/04 03:47:54;;;;;;;4.37;2.40;;;;;;;17.85;60.01;96436.63;5052978;28;20175;-69
2021/08/04 03:50:20;;;;;;;4.10;2.00;;;;;;;17.80;59.95;96434.63;5052708;28;20274;-68
2021/08/04 03:52:45;;;;;;;2.27;2.07;;;;;;;17.78;60.18;96436.66;5052713;28;20186;-68
2021/08/04 03:55:12;;;;;;;9.40;2.60;;;;;;;17.55;60.94;96437.28;5060532;28;20186;-68
2021/08/04 03:57:38;;;;;;;2.50;2.30;;;;;;;17.58;60.74;96431.56;5052785;28;20241;-68
2021/08/04 04:00:05;;;;;;;2.83;2.20;;;;;;;17.59;60.49;96430.50;5051170;28;20879;-68
2021/08/04 04:02:31;;;;;;;3.60;2.43;;;;;;;17.73;60.23;96428.56;5048673;28;20492;-68
2021/08/04 04:04:56;;;;;;;3.83;2.37;;;;;;;17.76;59.99;96434.25;5047991;28;20949;-69
2021/08/04 04:07:22;;;;;;;2.30;2.10;;;;;;;17.63;60.47;96439.66;5060399;28;20752;-68
2021/08/04 04:09:47;;;;;;;2.60;2.37;;;;;;;17.66;60.68;96440.03;5052649;28;20318;-67
2021/08/04 04:12:13;;;;;;;4.60;2.50;;;;;;;17.78;59.97;96440.16;5058015;28;20178;-67
2021/08/04 04:14:39;;;;;;;3.00;2.50;;;;;;;17.83;59.87;96439.50;5052219;28;20233;-68
2021/08/04 04:17:04;;;;;;;2.93;2.10;;;;;;;17.82;60.21;96443.16;5052065;28;20735;-69
2021/08/04 04:19:30;;;;;;;2.40;2.20;;;;;;;17.83;59.80;96444.78;5023205;28;20203;-67
2021/08/04 04:21:55;;;;;;;2.60;2.40;;;;;;;17.81;60.23;96446.84;5056057;28;20277;-67
2021/08/04 04:24:21;;;;;;;2.90;2.03;;;;;;;17.78;60.14;96442.78;5051770;28;20194;-68
2021/08/04 04:26:46;;;;;;;3.00;2.30;;;;;;;17.78;60.31;96444.63;5052097;28;20210;-68
2021/08/04 04:29:12;;;;;;;3.23;2.93;;;;;;;17.81;60.33;96442.38;5052084;28;20274;-67
2021/08/04 04:31:38;;;;;;;2.50;2.30;;;;;;;17.80;60.32;96442.56;5059164;28;20183;-68
2021/08/04 04:34:03;;;;;;;2.50;2.00;;;;;;;17.83;60.08;96441.34;5051772;28;20174;-68
2021/08/04 04:36:29;;;;;;;4.27;2.10;;;;;;;17.75;60.26;96447.72;5052083;28;20194;-69
2021/08/04 04:38:54;;;;;;;3.30;1.90;;;;;;;17.76;60.38;96447.50;5051843;28;20222;-70
2021/08/04 04:41:20;;;;;;;2.47;2.27;;;;;;;17.81;60.24;96452.16;5052228;28;20661;-69
2021/08/04 04:43:45;;;;;;;3.93;2.00;;;;;;;17.80;60.18;96447.88;5051996;28;20186;-68
2021/08/04 04:46:11;;;;;;;3.23;2.03;;;;;;;17.85;60.17;96442.75;5051735;28;20211;-68
2021/08/04 04:48:37;;;;;;;2.47;2.27;;;;;;;17.90;60.14;96444.72;5051763;28;20492;-69
2021/08/04 04:51:03;;;;;;;3.17;2.80;;;;;;;17.94;59.96;96443.28;5051539;28;20599;-69
2021/08/04 04:53:28;;;;;;;4.07;2.20;;;;;;;17.99;59.81;96445.31;5051933;28;20256;-69
2021/08/04 04:55:54;;;;;;;3.70;2.50;;;;;;;18.01;59.73;96451.22;5067182;28;20441;-69
2021/08/04 04:58:20;;;;;;;3.70;2.30;;;;;;;17.99;59.84;96443.44;5052896;28;20236;-68
2021/08/04 05:00:45;;;;;;;4.03;2.57;;;;;;;17.99;59.51;96453.25;5052049;28;20421;-69
2021/08/04 05:03:11;;;;;;;3.90;2.00;;;;;;;18.08;59.45;96449.28;5051438;28;20182;-69
2021/08/04 05:05:37;;;;;;;7.53;2.40;;;;;;;18.18;59.22;96456.75;5051827;28;20214;-69
2021/08/04 05:08:02;;;;;;;5.00;2.33;;;;;;;18.23;58.91;96459.53;5052240;28;20498;-69
2021/08/04 05:10:28;;;;;;;4.63;2.10;;;;;;;18.24;59.02;96456.69;5052225;28;20229;-69
2021/08/04 05:12:54;;;;;;;4.17;2.37;;;;;;;18.28;59.11;96467.66;5069985;28;20193;-69
2021/08/04 05:15:19;;;;;;;2.40;2.20;;;;;;;18.33;59.02;96465.19;5063614;28;20225;-71
2021/08/04 05:17:45;;;;;;;3.53;2.20;;;;;;;18.33;59.09;96470.47;5060541;28;20189;-69
2021/08/04 05:20:11;;;;;;;4.47;2.47;;;;;;;18.34;58.90;96468.63;5046695;28;20248;-69
2021/08/04 05:22:37;;;;;;;3.37;2.27;;;;;;;18.43;58.92;96469.94;5053662;28;20184;-68
2021/08/04 05:25:02;;;;;;;2.50;2.30;;;;;;;18.55;58.55;96465.53;5051009;28;20464;-70
2021/08/04 05:27:28;;;;;;;5.27;2.57;;;;;;;18.57;58.40;96468.78;5049652;28;20206;-69
2021/08/04 05:29:54;;;;;;;4.60;2.37;;;;;;;18.70;58.16;96474.97;5054205;28;20206;-69
2021/08/04 05:32:19;;;;;;;5.93;2.50;;;;;;;18.67;58.12;96470.09;5053505;28;20277;-69
2021/08/04 05:34:45;;;;;;;4.50;2.50;;;;;;;18.77;57.93;96474.88;5065275;28;20256;-69
2021/08/04 05:37:10;;;;;;;2.77;2.57;;;;;;;18.77;58.01;96478.38;5051114;28;20534;-69
2021/08/04 05:39:36;;;;;;;4.33;2.77;;;;;;;18.80;57.99;96480.56;5045899;28;20190;-69
2021/08/04 05:42:02;;;;;;;3.80;3.50;;;;;;;18.93;57.62;96476.94;5049277;28;20554;-68
2021/08/04 05:44:27;;;;;;;2.70;2.50;;;;;;;18.87;57.46;96477.81;5050928;28;20225;-69
2021/08/04 05:46:53;;;;;;;3.10;2.63;;;;;;;18.96;57.18;96468.56;5051510;28;20348;-70
2021/08/04 05:49:18;;;;;;;5.37;2.60;;;;;;;18.84;57.58;96476.44;5040967;28;20180;-68
2021/08/04 05:51:44;;;;;;;2.77;2.57;;;;;;;18.90;57.32;96468.63;5051405;28;20527;-70
2021/08/04 05:54:10;;;;;;;3.67;2.03;;;;;;;19.06;57.06;96470.66;5067758;28;20228;-71
2021/08/04 05:56:35;;;;;;;5.73;2.33;;;;;;;19.16;56.43;96462.97;5070564;28;20220;-70
2021/08/04 05:59:01;;;;;;;3.60;2.17;;;;;;;19.22;56.61;96466.56;5070667;28;20182;-68
2021/08/04 06:01:26;;;;;;;14.17;2.33;;;;;;;19.19;56.43;96467.84;5069750;28;20259;-69
2021/08/04 06:03:52;;;;;;;4.40;1.90;;;;;;;19.13;56.29;96467.94;5070734;28;20182;-70
2021/08/04 06:06:17;;;;;;;3.67;2.10;;;;;;;19.01;56.84;96466.03;5062508;28;20215;-69
2021/08/04 06:08:43;;;;;;;3.30;2.07;;;;;;;19.10;56.34;96466.53;5071350;28;20186;-70
2021/08/04 06:11:08;;;;;;;2.43;2.23;;;;;;;19.21;56.28;96464.97;5064921;28;20204;-68
2021/08/04 06:13:34;;;;;;;3.63;2.00;;;;;;;18.94;56.86;96465.31;5071030;28;20178;-68
2021/08/04 06:16:00;;;;;;;2.10;1.90;;;;;;;19.01;56.63;96462.59;5070881;28;20403;-70
2021/08/04 06:18:26;;;;;;;3.23;2.40;;;;;;;19.18;56.41;96466.22;5067566;28;20179;-70
2021/08/04 06:20:51;;;;;;;3.87;2.50;;;;;;;19.33;56.06;96470.31;5063326;28;20208;-69
2021/08/04 06:23:17;;;;;;;3.77;2.37;;;;;;;19.41;55.60;96474.50;5068135;28;20421;-70
2021/08/04 06:25:43;;;;;;;3.47;2.23;;;;;;;19.62;55.08;96471.31;5069868;28;20221;-69
2021/08/04 06:28:08;;;;;;;2.50;2.10;;;;;;;19.19;55.79;96475.81;5070939;28;20178;-68
2021/08/04 06:30:34;;;;;;;2.83;2.23;;;;;;;19.16;56.28;96473.59;5070478;28;20183;-68
2021/08/04 06:32:59;;;;;;;2.33;2.00;;;;;;;19.29;55.77;96471.78;5068897;28;20190;-70
2021/08/04 06:35:25;;;;;;;3.10;2.80;;;;;;;19.38;54.90;96469.63;5069011;28;20264;-68
2021/08/04 06:37:51;;;;;;;5.50;2.20;;;;;;;19.52;54.95;96478.25;5068958;28;20190;-69
2021/08/04 06:40:17;;;;;;;4.50;2.63;;;;;;;19.73;54.41;96491.00;5068813;28;20183;-69
2021/08/04 06:42:42;;;;;;;2.40;1.97;;;;;;;19.67;54.85;96481.25;5069331;28;20428;-69
2021/08/04 06:45:09;;;;;;;3.60;2.50;;;;;;;19.81;54.05;96484.53;5067869;28;20202;-69
2021/08/04 06:47:34;;;;;;;2.60;2.40;;;;;;;19.66;54.75;96484.94;5064594;28;20574;-69
2021/08/04 06:50:00;;;;;;;2.70;2.20;;;;;;;19.85;54.05;96488.34;5067391;28;20428;-70
2021/08/04 06:52:26;;;;;;;4.30;2.17;;;;;;;19.89;53.52;96476.25;5066412;28;20318;-69
2021/08/04 06:54:51;;;;;;;3.60;2.27;;;;;;;19.93;53.42;96481.91;5074232;28;20497;-70
2021/08/04 06:57:17;;;;;;;3.97;2.10;;;;;;;20.00;53.27;96482.63;5077762;28;20198;-69
2021/08/04 06:59:43;;;;;;;2.37;2.17;;;;;;;20.14;52.52;96483.19;5070006;28;20179;-69
2021/08/04 07:02:08;;;;;;;2.37;2.17;;;;;;;20.57;51.76;96486.53;5075822;28;20201;-68
2021/08/04 07:04:34;;;;;;;3.47;1.93;;;;;;;20.82;50.75;96483.63;5077078;28;20190;-69
2021/08/04 07:07:01;;;;;;;4.60;1.80;;;;;;;21.08;50.45;96485.97;5077575;28;20203;-70
2021/08/04 07:09:27;;;;;;;2.17;1.97;;;;;;;20.75;51.28;96480.25;5070878;28;20174;-68
2021/08/04 07:11:53;;;;;;;2.17;1.90;;;;;;;21.15;50.72;96483.97;5063366;28;20433;-69
2021/08/04 07:14:19;;;;;;;2.60;2.20;;;;;;;21.45;50.31;96486.41;5072798;28;20544;-68
2021/08/04 07:16:48;;;;;;;2.43;2.23;;;;;;;21.76;48.80;96478.13;5072356;28;20470;-70
2021/08/04 07:19:14;;;;;;;2.30;2.10;;;;;;;22.19;47.93;96476.66;5066044;28;20213;-70
2021/08/04 07:21:40;;;;;;;2.33;2.13;;;;;;;22.11;47.71;96476.28;5051780;28;20421;-69
2021/08/04 07:24:07;;;;;;;4.50;2.40;;;;;;;22.42;45.96;96476.72;5073079;28;20432;-69
2021/08/04 07:26:34;;;;;;;2.67;2.37;;;;;;;22.70;45.00;96478.44;5071297;28;20460;-68
2021/08/04 07:29:00;;;;;;;3.20;2.00;;;;;;;22.79;45.07;96482.31;5073305;28;20489;-68
2021/08/04 07:31:25;;;;;;;2.90;1.70;;;;;;;23.05;43.64;96476.44;5072916;28;20904;-68
2021/08/04 07:33:51;;;;;;;2.80;2.30;;;;;;;23.09;43.50;96480.25;5070982;28;20182;-69
2021/08/04 07:36:17;;;;;;;3.53;2.00;;;;;;;23.00;43.82;96480.66;5072000;28;20213;-67
2021/08/04 07:38:42;;;;;;;2.30;2.07;;;;;;;22.92;44.42;96477.66;5072862;28;20294;-70
2021/08/04 07:41:08;;;;;;;2.43;1.97;;;;;;;22.96;43.98;96468.06;5072557;28;20911;-68
2021/08/04 07:43:34;;;;;;;2.47;2.27;;;;;;;22.77;44.54;96472.91;5065489;28;20638;-69
2021/08/04 07:45:59;;;;;;;3.00;2.13;;;;;;;22.79;44.55;96471.63;5071213;28;20276;-68
2021/08/04 07:48:27;;;;;;;2.43;2.23;;;;;;;22.70;44.39;96481.09;5055080;28;20179;-68
2021/08/04 07:50:53;;;;;;;2.53;1.93;;;;;;;23.04;43.53;96480.16;5070838;28;20202;-69
2021/08/04 07:53:18;;;;;;;2.17;1.90;;;;;;;23.07;43.74;96479.66;5053879;28;20420;-69
2021/08/04 07:55:44;;;;;;;2.57;2.10;;;;;;;23.05;43.77;96471.09;5067337;28;20336;-69
2021/08/04 07:58:09;;;;;;;4.33;1.90;;;;;;;22.54;44.99;96464.91;5061296;28;20202;-69
2021/08/04 08:00:35;;;;;;;1.93;1.83;;;;;;;22.76;44.59;96458.75;5066140;28;20189;-69
2021/08/04 08:03:02;;;;;;;2.60;2.23;;;;;;;22.95;44.26;96469.09;5072782;28;20679;-68
2021/08/04 08:05:27;;;;;;;3.20;2.20;;;;;;;23.07;43.46;96467.09;5071453;28;20249;-68
2021/08/04 08:07:53;;;;;;;2.60;1.90;;;;;;;22.55;44.03;96461.19;5066434;28;20433;-69
2021/08/04 08:10:21;;;;;;;2.30;1.93;;;;;;;22.45;44.68;96455.69;5063447;28;20216;-68
2021/08/04 08:12:47;;;;;;;2.53;2.33;;;;;;;22.80;43.90;96459.06;5071625;28;20190;-69
2021/08/04 08:15:13;;;;;;;6.90;4.80;;;;;;;22.96;43.91;96460.03;5074134;28;20500;-69
2021/08/04 08:17:39;;;;;;;1.93;1.73;;;;;;;22.49;44.56;96459.50;5071844;28;20964;-69
2021/08/04 08:20:06;;;;;;;4.23;2.00;;;;;;;22.11;45.68;96466.41;5061205;28;20428;-69
2021/08/04 08:22:32;;;;;;;8.13;2.30;;;;;;;22.19;45.35;96462.53;5068089;28;20425;-69
2021/08/04 08:24:57;;;;;;;2.33;2.13;;;;;;;22.16;45.77;96463.81;5072391;28;20486;-69
2021/08/04 08:27:23;;;;;;;2.80;2.30;;;;;;;22.12;45.44;96465.34;5072696;28;20889;-69
2021/08/04 08:29:48;;;;;;;3.27;2.30;;;;;;;21.71;46.47;96462.88;5072793;28;20182;-68
2021/08/04 08:32:14;;;;;;;4.53;1.83;;;;;;;21.39;47.55;96467.88;5056002;28;20213;-68
2021/08/04 08:34:39;;;;;;;2.40;2.20;;;;;;;21.71;46.98;96478.03;5072189;28;20236;-69
2021/08/04 08:37:05;;;;;;;3.73;2.60;;;;;;;21.43;47.87;96479.66;5072364;28;20221;-68
2021/08/04 08:39:32;;;;;;;2.50;2.30;;;;;;;21.56;47.50;96481.25;5072751;28;20202;-68
2021/08/04 08:42:02;;;;;;;2.63;2.43;;;;;;;21.31;48.13;96475.22;5071416;28;20191;-68
2021/08/04 08:44:28;;;;;;;1.80;1.70;;;;;;;20.65;49.57;96477.38;5062462;28;20793;-68
2021/08/04 08:46:54;;;;;;;3.70;2.43;;;;;;;20.42;50.27;96485.16;5072527;28;20460;-68
2021/08/04 08:49:27;;;;;;;2.30;2.10;;;;;;;21.20;48.47;96478.72;5064431;28;20187;-68
2021/08/04 08:51:54;;;;;;;2.60;2.40;;;;;;;21.99;46.61;96473.69;5068100;28;20432;-68
2021/08/04 08:54:20;;;;;;;2.30;2.10;;;;;;;20.75;49.06;96482.13;5061475;28;20417;-69
2021/08/04 08:56:46;;;;;;;2.40;2.20;;;;;;;21.58;47.42;96471.16;5067071;28;20490;-69
2021/08/04 08:59:15;;;;;;;3.30;2.83;;;;;;;22.01;45.85;96455.59;5067673;28;20183;-69
2021/08/04 09:01:40;;;;;;;2.83;2.40;;;;;;;21.61;47.20;96462.72;5076090;28;20190;-70
2021/08/04 09:04:10;;;;;;;6.07;1.93;;;;;;;22.18;45.73;96455.56;5077692;28;20570;-68
2021/08/04 09:06:53;;;;;;;7.43;5.13;;;;;;;22.11;45.84;96447.72;5075455;28;20677;-68
2021/08/04 09:09:27;;;;;;;3.00;2.40;;;;;;;21.69;47.10;96443.63;5068742;28;20447;-68
2021/08/04 09:11:56;;;;;;;2.87;2.60;;;;;;;22.78;44.36;96451.31;5070879;28;20432;-69
2021/08/04 09:14:30;;;;;;;4.83;2.07;;;;;;;23.02;43.84;96446.50;5071556;28;20505;-69
2021/08/04 09:17:04;;;;;;;3.10;2.00;;;;;;;23.25;42.30;96439.25;5071710;28;20440;-68
2021/08/04 09:19:31;;;;;;;2.77;2.53;;;;;;;23.19;42.67;96431.44;5047823;28;20446;-68
2021/08/04 09:22:12;;;;;;;3.13;2.20;;;;;;;22.94;43.06;96430.09;5066276;28;20428;-70
2021/08/04 09:24:57;;;;;;;2.60;2.33;;;;;;;23.17;42.44;96426.34;5058394;28;20524;-68
2021/08/04 09:27:45;;;;;;;2.60;1.87;;;;;;;23.76;41.01;96424.72;5071472;28;20519;-69
2021/08/04 09:30:32;;;;;;;1.97;1.87;;;;;;;22.52;43.41;96421.63;5069500;28;20429;-69
2021/08/04 09:33:10;;;;;;;2.40;2.20;;;;;;;22.93;43.11;96431.19;5071414;28;20429;-69
2021/08/04 09:35:50;;;;;;;3.73;3.17;;;;;;;22.96;43.23;96428.81;5056132;28;20511;-68
2021/08/04 09:38:16;;;;;;;5.57;2.40;;;;;;;22.80;43.39;96429.69;5064929;28;20527;-69
2021/08/04 09:40:42;;;;;;;2.67;1.93;;;;;;;22.27;44.14;96426.59;5071810;28;20424;-70
2021/08/04 09:43:08;;;;;;;4.20;2.07;;;;;;;22.25;44.59;96429.50;5054386;28;20512;-68
2021/08/04 09:45:46;;;;;;;4.03;3.63;;;;;;;22.43;44.54;96425.75;5067826;28;20825;-69
2021/08/04 09:48:15;;;;;;;2.23;1.83;;;;;;;22.20;44.94;96424.91;5071336;28;20277;-68
2021/08/04 09:50:50;;;;;;;4.60;1.80;;;;;;;22.45;44.29;96425.53;5071772;28;20463;-68
2021/08/04 09:53:35;;;;;;;5.80;2.23;;;;;;;22.47;44.18;96426.88;5068362;28;20423;-69
2021/08/04 09:56:17;;;;;;;3.33;2.00;;;;;;;22.57;43.66;96430.75;5071736;28;20535;-70
2021/08/04 09:58:48;;;;;;;1.80;1.70;;;;;;;22.77;43.10;96425.66;5058581;28;20499;-70
2021/08/04 10:01:16;;;;;;;2.57;1.97;;;;;;;21.67;45.26;96423.59;5072347;28;20417;-70
2021/08/04 10:04:01;;;;;;;2.33;2.00;;;;;;;22.22;43.97;96419.34;5066435;28;20478;-69
2021/08/04 10:06:27;;;;;;;3.37;2.20;;;;;;;22.62;43.09;96428.13;5071518;28;20779;-68
2021/08/04 10:08:53;;;;;;;4.80;1.80;;;;;;;22.68;43.58;96432.50;5071550;28;20425;-69
2021/08/04 10:11:18;;;;;;;4.50;2.00;;;;;;;22.62;43.61;96430.81;5057406;28;20709;-69
2021/08/04 10:13:44;;;;;;;2.40;2.20;;;;;;;22.61;44.14;96430.03;5060204;28;20508;-70
2021/08/04 10:16:10;;;;;;;2.93;2.10;;;;;;;22.74;43.72;96420.81;5072387;28;20276;-69
2021/08/04 10:18:38;;;;;;;2.87;2.20;;;;;;;22.66;43.63;96424.72;5071692;28;20183;-69
2021/08/04 10:21:08;;;;;;;2.30;2.10;;;;;;;21.81;45.51;96406.22;5065513;28;20196;-70
2021/08/04 10:23:34;;;;;;;3.57;1.87;;;;;;;22.01;45.35;96396.91;5052802;28;20434;-69
2021/08/04 10:26:00;;;;;;;3.10;2.20;;;;;;;22.45;44.81;96394.28;5068844;28;20468;-69
2021/08/04 10:28:27;;;;;;;2.17;1.80;;;;;;;22.50;43.79;96394.38;5070388;28;20189;-70
2021/08/04 10:30:53;;;;;;;2.70;1.60;;;;;;;22.62;43.95;96396.91;5071413;28;20821;-69
2021/08/04 10:33:19;;;;;;;2.90;2.40;;;;;;;22.12;44.98;96392.50;5071443;28;20435;-70
2021/08/04 10:35:47;;;;;;;3.30;2.20;;;;;;;22.43;45.10;96390.28;5070333;28;20681;-70
2021/08/04 10:38:15;;;;;;;3.20;2.23;;;;;;;22.34;45.10;96397.88;5052637;28;20206;-68
2021/08/04 10:40:41;;;;;;;2.43;2.23;;;;;;;22.63;44.70;96387.84;5068891;28;20421;-70
2021/08/04 10:43:07;;;;;;;2.30;2.10;;;;;;;22.86;43.73;96388.63;5070253;28;20494;-69
2021/08/04 10:45:34;;;;;;;2.90;2.43;;;;;;;22.68;43.87;96395.13;5072273;28;20214;-68
2021/08/04 10:48:18;;;;;;;2.77;2.53;;;;;;;22.85;43.76;96387.81;5074498;28;20311;-68
2021/08/04 10:51:10;;;;;;;6.97;2.53;;;;;;;23.20;42.98;96393.81;5055120;28;20849;-69
2021/08/04 10:54:01;;;;;;;3.93;2.43;;;;;;;23.27;42.73;96396.25;5059015;28;20455;-68
2021/08/04 10:56:48;;;;;;;5.80;2.07;;;;;;;23.20;42.69;96379.63;5073451;28;20437;-68
2021/08/04 10:59:13;;;;;;;2.97;1.97;;;;;;;23.46;42.24;96372.63;5069756;28;20439;-69
2021/08/04 11:01:44;;;;;;;2.80;2.20;;;;;;;23.31;42.70;96368.78;5073887;28;20432;-70
2021/08/04 11:04:14;;;;;;;11.70;2.83;;;;;;;23.29;42.68;96378.91;5065248;28;20194;-69
2021/08/04 11:07:15;;;;;;;2.63;2.43;;;;;;;23.52;42.45;96370.81;5070865;28;20614;-69
2021/08/04 11:09:56;;;;;;;1.80;1.70;;;;;;;23.73;41.86;96372.56;5060912;28;20419;-68
2021/08/04 11:12:40;;;;;;;2.37;2.17;;;;;;;23.95;41.25;96374.28;5073598;28;20936;-69
2021/08/04 11:15:29;;;;;;;2.33;2.13;;;;;;;23.35;41.86;96379.75;5073228;28;20425;-69
2021/08/04 11:18:01;;;;;;;2.13;1.50;;;;;;;23.71;41.55;96374.69;5073300;28;20429;-69
2021/08/04 11:20:26;;;;;;;3.10;2.27;;;;;;;24.16;40.33;96367.22;5064946;28;20786;-69
2021/08/04 11:22:53;;;;;;;2.50;2.30;;;;;;;23.97;41.70;96366.84;5068475;28;20448;-70
2021/08/04 11:25:41;;;;;;;1.83;1.73;;;;;;;23.78;41.73;96363.75;5072847;28;20325;-69
2021/08/04 11:28:14;;;;;;;2.63;2.23;;;;;;;24.14;40.92;96360.53;5073231;28;20420;-69
2021/08/04 11:30:41;;;;;;;1.63;1.50;;;;;;;24.57;39.50;96363.94;5071917;28;20429;-69
2021/08/04 11:33:19;;;;;;;1.77;1.67;;;;;;;24.86;38.87;96350.09;5073340;28;20453;-69
2021/08/04 11:36:09;;;;;;;6.37;2.07;;;;;;;24.78;38.79;96358.66;5073423;28;20791;-70
2021/08/04 11:38:55;;;;;;;2.80;1.80;;;;;;;24.96;38.28;96355.44;5066142;28;20442;-70